sensor_id;sensor_type;location;lat;lon;timestamp;pressure;altitude;pressure_sealevel;temperature;humidity
59443;BME280;45247;47.466;19.004;2023-04-09T00:01:56;100556.19;;;2.13;100.00
59443;BME280;45247;47.466;19.004;2023-04-09T00:04:24;100555.34;;;2.11;100.00
59443;BME280;45247;47.466;19.004;2023-04-09T00:06:52;100559.72;;;2.09;100.00
59443;BME280;45247;47.466;19.004;2023-04-09T00:09:22;100564.09;;;2.07;100.00
59443;BME280;45247;47.466;19.004;2023-04-09T00:11:50;100551.91;;;2.09;100.00
59443;BME280;45247;47.466;19.004;2023-04-09T00:14:18;100559.72;;;2.09;100.00
59443;BME280;45247;47.466;19.004;2023-04-09T00:16:46;100559.78;;;2.06;100.00
59443;BME280;45247;47.466;19.004;2023-04-09T00:19:14;100560.63;;;2.05;100.00
59443;BME280;45247;47.466;19.004;2023-04-09T00:21:42;100553.69;;;2.07;100.00
59443;BME280;45247;47.466;19.004;2023-04-09T00:24:10;100551.91;;;2.09;100.00
59443;BME280;45247;47.466;19.004;2023-04-09T00:26:40;100551.75;;;2.18;100.00
59443;BME280;45247;47.466;19.004;2023-04-09T00:29:08;100549.09;;;2.22;100.00
59443;BME280;45247;47.466;19.004;2023-04-09T00:31:36;100551.72;;;2.21;100.00
59443;BME280;45247;47.466;19.004;2023-04-09T00:34:04;100552.56;;;2.21;100.00
59443;BME280;45247;47.466;19.004;2023-04-09T00:36:32;100551.72;;;2.21;100.00
59443;BME280;45247;47.466;19.004;2023-04-09T00:39:00;100552.56;;;2.23;100.00
59443;BME280;45247;47.466;19.004;2023-04-09T00:41:29;100548.28;;;2.19;100.00
59443;BME280;45247;47.466;19.004;2023-04-09T00:43:58;100554.38;;;2.18;100.00
59443;BME280;45247;47.466;19.004;2023-04-09T00:46:26;100551.75;;;2.18;100.00
59443;BME280;45247;47.466;19.004;2023-04-09T00:48:54;100542.22;;;2.17;100.00
59443;BME280;45247;47.466;19.004;2023-04-09T00:51:22;100539.66;;;2.14;100.00
59443;BME280;45247;47.466;19.004;2023-04-09T00:53:52;100546.50;;;2.21;100.00
59443;BME280;45247;47.466;19.004;2023-04-09T00:56:21;100544.81;;;2.20;100.00
59443;BME280;45247;47.466;19.004;2023-04-09T00:58:49;100543.00;;;2.22;100.00
59443;BME280;45247;47.466;19.004;2023-04-09T01:01:19;100548.19;;;2.25;100.00
59443;BME280;45247;47.466;19.004;2023-04-09T01:03:47;100544.66;;;2.29;100.00
59443;BME280;45247;47.466;19.004;2023-04-09T01:06:21;100537.63;;;2.34;100.00
59443;BME280;45247;47.466;19.004;2023-04-09T01:09:01;100545.31;;;2.42;100.00
59443;BME280;45247;47.466;19.004;2023-04-09T01:11:36;100547.81;;;2.49;100.00
59443;BME280;45247;47.466;19.004;2023-04-09T01:14:10;100539.91;;;2.54;100.00
59443;BME280;45247;47.466;19.004;2023-04-09T01:16:43;100548.56;;;2.56;100.00
59443;BME280;45247;47.466;19.004;2023-04-09T01:19:29;100540.72;;;2.58;100.00
59443;BME280;45247;47.466;19.004;2023-04-09T01:22:04;100542.50;;;2.56;100.00
59443;BME280;45247;47.466;19.004;2023-04-09T01:24:41;100542.53;;;2.53;100.00
59443;BME280;45247;47.466;19.004;2023-04-09T01:27:13;100541.66;;;2.54;100.00
59443;BME280;45247;47.466;19.004;2023-04-09T01:29:45;100536.50;;;2.50;100.00
59443;BME280;45247;47.466;19.004;2023-04-09T01:32:16;100537.47;;;2.43;100.00
59443;BME280;45247;47.466;19.004;2023-04-09T01:34:46;100541.88;;;2.40;100.00
59443;BME280;45247;47.466;19.004;2023-04-09T01:37:15;100542.88;;;2.31;100.00
59443;BME280;45247;47.466;19.004;2023-04-09T01:39:45;100546.50;;;2.21;100.00
59443;BME280;45247;47.466;19.004;2023-04-09T01:42:14;100554.44;;;2.13;100.00
59443;BME280;45247;47.466;19.004;2023-04-09T01:44:45;100547.63;;;2.06;100.00
59443;BME280;45247;47.466;19.004;2023-04-09T01:47:14;100546.94;;;1.92;100.00
59443;BME280;45247;47.466;19.004;2023-04-09T01:49:43;100549.69;;;1.81;100.00
59443;BME280;45247;47.466;19.004;2023-04-09T01:52:11;100546.34;;;1.73;100.00
59443;BME280;45247;47.466;19.004;2023-04-09T01:54:41;100540.38;;;1.65;100.00
59443;BME280;45247;47.466;19.004;2023-04-09T01:57:09;100546.41;;;1.65;100.00
59443;BME280;45247;47.466;19.004;2023-04-09T01:59:38;100543.97;;;1.55;100.00
59443;BME280;45247;47.466;19.004;2023-04-09T02:02:09;100545.78;;;1.48;100.00
59443;BME280;45247;47.466;19.004;2023-04-09T02:04:42;100549.22;;;1.48;100.00
59443;BME280;45247;47.466;19.004;2023-04-09T02:07:18;100552.66;;;1.52;100.00
59443;BME280;45247;47.466;19.004;2023-04-09T02:09:52;100555.25;;;1.55;100.00
59443;BME280;45247;47.466;19.004;2023-04-09T02:12:22;100549.13;;;1.58;100.00
59443;BME280;45247;47.466;19.004;2023-04-09T02:14:51;100553.47;;;1.59;100.00
59443;BME280;45247;47.466;19.004;2023-04-09T02:17:21;100546.50;;;1.58;100.00
59443;BME280;45247;47.466;19.004;2023-04-09T02:19:49;100546.56;;;1.55;100.00
59443;BME280;45247;47.466;19.004;2023-04-09T02:22:18;100545.69;;;1.56;100.00
59443;BME280;45247;47.466;19.004;2023-04-09T02:24:46;100540.50;;;1.53;100.00
59443;BME280;45247;47.466;19.004;2023-04-09T02:27:14;100538.81;;;1.48;100.00
59443;BME280;45247;47.466;19.004;2023-04-09T02:29:43;100543.16;;;1.51;100.00
59443;BME280;45247;47.466;19.004;2023-04-09T02:32:11;100547.44;;;1.54;100.00
59443;BME280;45247;47.466;19.004;2023-04-09T02:34:40;100542.31;;;1.47;100.00
59443;BME280;45247;47.466;19.004;2023-04-09T02:37:08;100537.13;;;1.44;100.00
59443;BME280;45247;47.466;19.004;2023-04-09T02:39:36;100545.84;;;1.40;100.00
59443;BME280;45247;47.466;19.004;2023-04-09T02:42:05;100540.59;;;1.46;100.00
59443;BME280;45247;47.466;19.004;2023-04-09T02:44:33;100539.75;;;1.44;100.00
59443;BME280;45247;47.466;19.004;2023-04-09T02:47:01;100538.03;;;1.43;100.00
59443;BME280;45247;47.466;19.004;2023-04-09T02:49:29;100544.06;;;1.45;100.00
59443;BME280;45247;47.466;19.004;2023-04-09T02:51:59;100539.78;;;1.43;100.00
59443;BME280;45247;47.466;19.004;2023-04-09T02:54:27;100540.66;;;1.42;100.00
59443;BME280;45247;47.466;19.004;2023-04-09T02:56:55;100530.25;;;1.42;100.00
59443;BME280;45247;47.466;19.004;2023-04-09T02:59:23;100535.50;;;1.37;100.00
59443;BME280;45247;47.466;19.004;2023-04-09T03:01:51;100537.22;;;1.38;100.00
59443;BME280;45247;47.466;19.004;2023-04-09T03:04:20;100539.84;;;1.35;100.00
59443;BME280;45247;47.466;19.004;2023-04-09T03:06:48;100541.56;;;1.36;100.00
59443;BME280;45247;47.466;19.004;2023-04-09T03:09:18;100537.28;;;1.32;100.00
59443;BME280;45247;47.466;19.004;2023-04-09T03:11:46;100533.81;;;1.33;100.00
59443;BME280;45247;47.466;19.004;2023-04-09T03:14:14;100533.81;;;1.33;100.00
59443;BME280;45247;47.466;19.004;2023-04-09T03:16:42;100529.44;;;1.35;100.00
59443;BME280;45247;47.466;19.004;2023-04-09T03:19:11;100532.94;;;1.34;100.00
59443;BME280;45247;47.466;19.004;2023-04-09T03:21:38;100537.28;;;1.34;100.00
59443;BME280;45247;47.466;19.004;2023-04-09T03:24:07;100538.97;;;1.36;100.00
59443;BME280;45247;47.466;19.004;2023-04-09T03:26:36;100537.19;;;1.40;100.00
59443;BME280;45247;47.466;19.004;2023-04-09T03:29:05;100530.31;;;1.37;100.00
59443;BME280;45247;47.466;19.004;2023-04-09T03:31:33;100533.78;;;1.36;100.00
59443;BME280;45247;47.466;19.004;2023-04-09T03:34:01;100533.78;;;1.36;100.00
59443;BME280;45247;47.466;19.004;2023-04-09T03:36:29;100540.72;;;1.37;100.00
59443;BME280;45247;47.466;19.004;2023-04-09T03:38:58;100541.56;;;1.36;100.00
59443;BME280;45247;47.466;19.004;2023-04-09T03:41:27;100542.44;;;1.38;100.00
59443;BME280;45247;47.466;19.004;2023-04-09T03:43:56;100538.09;;;1.39;100.00
59443;BME280;45247;47.466;19.004;2023-04-09T03:46:25;100543.34;;;1.33;100.00
59443;BME280;45247;47.466;19.004;2023-04-09T03:48:53;100545.94;;;1.34;100.00
59443;BME280;45247;47.466;19.004;2023-04-09T03:51:21;100540.72;;;1.37;100.00
59443;BME280;45247;47.466;19.004;2023-04-09T03:53:49;100548.47;;;1.40;100.00
59443;BME280;45247;47.466;19.004;2023-04-09T03:56:17;100545.81;;;1.46;100.00
59443;BME280;45247;47.466;19.004;2023-04-09T03:58:45;100553.53;;;1.53;100.00
59443;BME280;45247;47.466;19.004;2023-04-09T04:01:15;100548.44;;;1.43;100.00
59443;BME280;45247;47.466;19.004;2023-04-09T04:03:43;100548.53;;;1.34;100.00
59443;BME280;45247;47.466;19.004;2023-04-09T04:06:12;100557.19;;;1.38;100.00
59443;BME280;45247;47.466;19.004;2023-04-09T04:08:40;100551.94;;;1.39;100.00
59443;BME280;45247;47.466;19.004;2023-04-09T04:11:08;100558.81;;;1.45;100.00
59443;BME280;45247;47.466;19.004;2023-04-09T04:13:36;100550.16;;;1.44;100.00
59443;BME280;45247;47.466;19.004;2023-04-09T04:16:06;100552.63;;;1.54;100.00
59443;BME280;45247;47.466;19.004;2023-04-09T04:18:36;100555.16;;;1.63;100.00
59443;BME280;45247;47.466;19.004;2023-04-09T04:21:04;100554.19;;;1.67;100.00
59443;BME280;45247;47.466;19.004;2023-04-09T04:23:33;100559.34;;;1.73;100.00
59443;BME280;45247;47.466;19.004;2023-04-09T04:26:01;100560.09;;;1.81;100.00
59443;BME280;45247;47.466;19.004;2023-04-09T04:28:29;100563.47;;;1.88;100.00
59443;BME280;45247;47.466;19.004;2023-04-09T04:30:57;100560.00;;;1.89;100.00
59443;BME280;45247;47.466;19.004;2023-04-09T04:33:25;100565.97;;;1.95;100.00
59443;BME280;45247;47.466;19.004;2023-04-09T04:36:03;100568.53;;;1.97;100.00
59443;BME280;45247;47.466;19.004;2023-04-09T04:38:32;100568.53;;;1.97;100.00
59443;BME280;45247;47.466;19.004;2023-04-09T04:41:00;100581.47;;;2.05;100.00
59443;BME280;45247;47.466;19.004;2023-04-09T04:43:28;100575.44;;;2.01;100.00
59443;BME280;45247;47.466;19.004;2023-04-09T04:45:57;100575.41;;;2.04;100.00
59443;BME280;45247;47.466;19.004;2023-04-09T04:48:27;100567.56;;;2.07;100.00
59443;BME280;45247;47.466;19.004;2023-04-09T04:50:59;100575.19;;;2.18;100.00
59443;BME280;45247;47.466;19.004;2023-04-09T04:53:27;100567.22;;;2.30;100.00
59443;BME280;45247;47.466;19.004;2023-04-09T04:55:55;100560.19;;;2.35;100.00
59443;BME280;45247;47.466;19.004;2023-04-09T04:58:24;100577.41;;;2.45;100.00
59443;BME280;45247;47.466;19.004;2023-04-09T05:00:52;100570.25;;;2.57;100.00
59443;BME280;45247;47.466;19.004;2023-04-09T05:03:20;100566.78;;;2.58;100.00
59443;BME280;45247;47.466;19.004;2023-04-09T05:05:51;100569.22;;;2.68;100.00
59443;BME280;45247;47.466;19.004;2023-04-09T05:08:21;100569.97;;;2.75;100.00
59443;BME280;45247;47.466;19.004;2023-04-09T05:10:49;100581.16;;;2.82;100.00
59443;BME280;45247;47.466;19.004;2023-04-09T05:13:17;100571.44;;;2.91;100.00
59443;BME280;45247;47.466;19.004;2023-04-09T05:15:45;100576.53;;;2.97;100.00
59443;BME280;45247;47.466;19.004;2023-04-09T05:18:13;100575.53;;;3.05;100.00
59443;BME280;45247;47.466;19.004;2023-04-09T05:20:41;100580.59;;;3.12;100.00
59443;BME280;45247;47.466;19.004;2023-04-09T05:23:09;100578.81;;;3.16;100.00
59443;BME280;45247;47.466;19.004;2023-04-09T05:25:39;100583.03;;;3.23;100.00
59443;BME280;45247;47.466;19.004;2023-04-09T05:28:07;100581.16;;;3.30;100.00
59443;BME280;45247;47.466;19.004;2023-04-09T05:30:36;100585.31;;;3.38;100.00
59443;BME280;45247;47.466;19.004;2023-04-09T05:33:05;100586.19;;;3.40;100.00
59443;BME280;45247;47.466;19.004;2023-04-09T05:35:37;100580.81;;;3.46;100.00
59443;BME280;45247;47.466;19.004;2023-04-09T05:38:05;100592.91;;;3.50;100.00
59443;BME280;45247;47.466;19.004;2023-04-09T05:40:33;100589.31;;;3.58;100.00
59443;BME280;45247;47.466;19.004;2023-04-09T05:43:03;100590.06;;;3.64;100.00
59443;BME280;45247;47.466;19.004;2023-04-09T05:45:31;100590.94;;;3.63;100.00
59443;BME280;45247;47.466;19.004;2023-04-09T05:47:59;100589.00;;;3.73;100.00
59443;BME280;45247;47.466;19.004;2023-04-09T05:50:27;100590.06;;;3.64;100.00
59443;BME280;45247;47.466;19.004;2023-04-09T05:52:58;100597.72;;;3.72;100.00
59443;BME280;45247;47.466;19.004;2023-04-09T05:55:26;100592.38;;;3.78;100.00
59443;BME280;45247;47.466;19.004;2023-04-09T05:57:54;100596.56;;;3.85;100.00
59443;BME280;45247;47.466;19.004;2023-04-09T06:00:24;100594.66;;;3.95;100.00
59443;BME280;45247;47.466;19.004;2023-04-09T06:02:52;100598.72;;;4.08;100.00
59443;BME280;45247;47.466;19.004;2023-04-09T06:05:20;100601.31;;;4.08;100.00
59443;BME280;45247;47.466;19.004;2023-04-09T06:07:48;100603.81;;;4.13;100.00
59443;BME280;45247;47.466;19.004;2023-04-09T06:10:17;100597.47;;;4.24;100.00
59443;BME280;45247;47.466;19.004;2023-04-09T06:12:45;100599.94;;;4.31;100.00
59443;BME280;45247;47.466;19.004;2023-04-09T06:15:13;100603.47;;;4.28;100.00
59443;BME280;45247;47.466;19.004;2023-04-09T06:17:42;100601.69;;;4.30;100.00
59443;BME280;45247;47.466;19.004;2023-04-09T06:20:11;100604.16;;;4.36;100.00
59443;BME280;45247;47.466;19.004;2023-04-09T06:22:39;100602.50;;;4.32;100.00
59443;BME280;45247;47.466;19.004;2023-04-09T06:25:07;100602.34;;;4.40;100.00
59443;BME280;45247;47.466;19.004;2023-04-09T06:27:35;100606.59;;;4.45;100.00
59443;BME280;45247;47.466;19.004;2023-04-09T06:30:04;100601.25;;;4.48;100.00
59443;BME280;45247;47.466;19.004;2023-04-09T06:32:33;100602.00;;;4.55;100.00
59443;BME280;45247;47.466;19.004;2023-04-09T06:35:18;100605.41;;;4.59;100.00
59443;BME280;45247;47.466;19.004;2023-04-09T06:37:46;100602.78;;;4.59;100.00
59443;BME280;45247;47.466;19.004;2023-04-09T06:40:15;100606.28;;;4.58;100.00
59443;BME280;45247;47.466;19.004;2023-04-09T06:42:44;100602.47;;;4.71;100.00
59443;BME280;45247;47.466;19.004;2023-04-09T06:45:12;100609.03;;;4.87;100.00
59443;BME280;45247;47.466;19.004;2023-04-09T06:47:40;100597.66;;;4.90;100.00
59443;BME280;45247;47.466;19.004;2023-04-09T06:50:09;100595.97;;;4.87;100.00
59443;BME280;45247;47.466;19.004;2023-04-09T06:52:38;100595.78;;;4.95;100.00
59443;BME280;45247;47.466;19.004;2023-04-09T06:55:08;100600.78;;;5.04;100.00
59443;BME280;45247;47.466;19.004;2023-04-09T06:57:36;100605.06;;;5.07;100.00
59443;BME280;45247;47.466;19.004;2023-04-09T07:00:06;100610.25;;;5.10;100.00
59443;BME280;45247;47.466;19.004;2023-04-09T07:02:35;100614.28;;;5.21;100.00
59443;BME280;45247;47.466;19.004;2023-04-09T07:05:04;100615.13;;;5.22;100.00
59443;BME280;45247;47.466;19.004;2023-04-09T07:07:32;100618.41;;;5.30;100.00
59443;BME280;45247;47.466;19.004;2023-04-09T07:10:02;100618.25;;;5.36;100.00
59443;BME280;45247;47.466;19.004;2023-04-09T07:12:32;100618.91;;;5.44;100.00
59443;BME280;45247;47.466;19.004;2023-04-09T07:15:03;100619.56;;;5.52;100.00
59443;BME280;45247;47.466;19.004;2023-04-09T07:17:32;100618.69;;;5.52;100.00
59443;BME280;45247;47.466;19.004;2023-04-09T07:20:01;100615.19;;;5.53;100.00
59443;BME280;45247;47.466;19.004;2023-04-09T07:22:29;100623.44;;;5.69;100.00
59443;BME280;45247;47.466;19.004;2023-04-09T07:24:57;100634.69;;;5.74;100.00
59443;BME280;45247;47.466;19.004;2023-04-09T07:27:27;100636.41;;;5.75;100.00
59443;BME280;45247;47.466;19.004;2023-04-09T07:29:57;100629.06;;;5.86;100.00
59443;BME280;45247;47.466;19.004;2023-04-09T07:32:26;100640.88;;;6.02;100.00
59443;BME280;45247;47.466;19.004;2023-04-09T07:34:54;100634.22;;;6.20;100.00
59443;BME280;45247;47.466;19.004;2023-04-09T07:37:23;100635.44;;;6.38;100.00
59443;BME280;45247;47.466;19.004;2023-04-09T07:39:51;100639.41;;;6.51;100.00
59443;BME280;45247;47.466;19.004;2023-04-09T07:42:19;100646.84;;;6.65;100.00
59443;BME280;45247;47.466;19.004;2023-04-09T07:44:49;100645.00;;;6.67;100.00
59443;BME280;45247;47.466;19.004;2023-04-09T07:47:17;100647.47;;;6.72;100.00
59443;BME280;45247;47.466;19.004;2023-04-09T07:49:46;100645.16;;;6.91;100.00
59443;BME280;45247;47.466;19.004;2023-04-09T07:52:14;100640.59;;;6.96;100.00
59443;BME280;45247;47.466;19.004;2023-04-09T07:54:43;100649.56;;;6.89;100.00
59443;BME280;45247;47.466;19.004;2023-04-09T07:57:11;100645.97;;;7.18;100.00
59443;BME280;45247;47.466;19.004;2023-04-09T07:59:40;100652.84;;;7.22;100.00
59443;BME280;45247;47.466;19.004;2023-04-09T08:02:09;100650.41;;;7.42;100.00
59443;BME280;45247;47.466;19.004;2023-04-09T08:04:41;100642.47;;;7.69;100.00
59443;BME280;45247;47.466;19.004;2023-04-09T08:07:09;100647.69;;;7.94;100.00
59443;BME280;45247;47.466;19.004;2023-04-09T08:09:38;100649.34;;;8.20;100.00
59443;BME280;45247;47.466;19.004;2023-04-09T08:12:06;100650.25;;;7.95;100.00
59443;BME280;45247;47.466;19.004;2023-04-09T08:14:35;100647.97;;;8.10;100.00
59443;BME280;45247;47.466;19.004;2023-04-09T08:17:03;100654.78;;;8.15;100.00
59443;BME280;45247;47.466;19.004;2023-04-09T08:19:33;100641.91;;;8.31;100.00
59443;BME280;45247;47.466;19.004;2023-04-09T08:22:01;100652.97;;;8.63;100.00
59443;BME280;45247;47.466;19.004;2023-04-09T08:24:29;100653.81;;;8.63;100.00
59443;BME280;45247;47.466;19.004;2023-04-09T08:26:58;100657.00;;;8.49;100.00
59443;BME280;45247;47.466;19.004;2023-04-09T08:29:27;100661.31;;;8.74;100.00
59443;BME280;45247;47.466;19.004;2023-04-09T08:31:57;100663.75;;;9.00;100.00
59443;BME280;45247;47.466;19.004;2023-04-09T08:34:26;100658.31;;;9.03;100.00
59443;BME280;45247;47.466;19.004;2023-04-09T08:36:55;100653.22;;;9.62;100.00
59443;BME280;45247;47.466;19.004;2023-04-09T08:39:23;100655.47;;;9.50;97.26
59443;BME280;45247;47.466;19.004;2023-04-09T08:41:51;100665.34;;;9.45;100.00
59443;BME280;45247;47.466;19.004;2023-04-09T08:44:20;100652.06;;;9.69;93.60
59443;BME280;45247;47.466;19.004;2023-04-09T08:46:48;100670.59;;;9.86;90.57
59443;BME280;45247;47.466;19.004;2023-04-09T08:49:16;100667.72;;;10.11;93.27
59443;BME280;45247;47.466;19.004;2023-04-09T08:51:45;100670.06;;;10.17;95.39
59443;BME280;45247;47.466;19.004;2023-04-09T08:54:15;100673.06;;;10.10;91.60
59443;BME280;45247;47.466;19.004;2023-04-09T08:56:46;100675.19;;;10.01;88.62
59443;BME280;45247;47.466;19.004;2023-04-09T08:59:15;100670.97;;;9.97;87.96
59443;BME280;45247;47.466;19.004;2023-04-09T09:01:44;100685.19;;;10.14;89.57
59443;BME280;45247;47.466;19.004;2023-04-09T09:04:15;100680.31;;;10.04;90.33
59443;BME280;45247;47.466;19.004;2023-04-09T09:06:43;100684.56;;;9.88;89.17
59443;BME280;45247;47.466;19.004;2023-04-09T09:09:15;100676.88;;;9.63;91.01
59443;BME280;45247;47.466;19.004;2023-04-09T09:11:45;100676.34;;;9.35;100.00
59443;BME280;45247;47.466;19.004;2023-04-09T09:14:15;100684.84;;;9.41;95.76
59443;BME280;45247;47.466;19.004;2023-04-09T09:17:02;100680.91;;;9.51;95.58
59443;BME280;45247;47.466;19.004;2023-04-09T09:19:32;100677.47;;;9.49;97.86
59443;BME280;45247;47.466;19.004;2023-04-09T09:22:02;100684.31;;;9.53;92.73
59443;BME280;45247;47.466;19.004;2023-04-09T09:24:32;100677.75;;;9.43;94.32
59443;BME280;45247;47.466;19.004;2023-04-09T09:27:01;100676.28;;;9.77;98.73
59443;BME280;45247;47.466;19.004;2023-04-09T09:29:29;100685.72;;;10.01;99.08
59443;BME280;45247;47.466;19.004;2023-04-09T09:31:57;100679.34;;;9.68;97.40
59443;BME280;45247;47.466;19.004;2023-04-09T09:34:25;100681.22;;;9.23;97.27
59443;BME280;45247;47.466;19.004;2023-04-09T09:36:53;100680.63;;;9.17;95.49
59443;BME280;45247;47.466;19.004;2023-04-09T09:39:22;100674.69;;;9.32;96.86
59443;BME280;45247;47.466;19.004;2023-04-09T09:42:06;100669.03;;;9.62;94.95
59443;BME280;45247;47.466;19.004;2023-04-09T09:44:34;100670.56;;;9.47;92.05
59443;BME280;45247;47.466;19.004;2023-04-09T09:47:02;100675.56;;;9.73;92.92
59443;BME280;45247;47.466;19.004;2023-04-09T09:49:31;100673.66;;;9.77;91.02
59443;BME280;45247;47.466;19.004;2023-04-09T09:52:01;100674.31;;;9.82;88.72
59443;BME280;45247;47.466;19.004;2023-04-09T09:54:39;100657.13;;;9.92;91.37
59443;BME280;45247;47.466;19.004;2023-04-09T09:57:10;100667.00;;;10.08;89.67
59443;BME280;45247;47.466;19.004;2023-04-09T09:59:40;100658.78;;;9.95;88.37
59443;BME280;45247;47.466;19.004;2023-04-09T10:02:17;100663.78;;;10.01;89.76
59443;BME280;45247;47.466;19.004;2023-04-09T10:04:48;100672.94;;;9.53;91.81
59443;BME280;45247;47.466;19.004;2023-04-09T10:07:19;100673.00;;;9.51;91.97
59443;BME280;45247;47.466;19.004;2023-04-09T10:09:49;100668.22;;;9.80;93.93
59443;BME280;45247;47.466;19.004;2023-04-09T10:12:21;100669.28;;;9.76;94.07
59443;BME280;45247;47.466;19.004;2023-04-09T10:14:50;100668.53;;;9.11;96.77
59443;BME280;45247;47.466;19.004;2023-04-09T10:17:19;100667.25;;;9.21;95.19
59443;BME280;45247;47.466;19.004;2023-04-09T10:19:53;100667.06;;;9.26;94.35
59443;BME280;45247;47.466;19.004;2023-04-09T10:22:25;100666.81;;;9.52;98.11
59443;BME280;45247;47.466;19.004;2023-04-09T10:24:56;100667.31;;;9.40;96.54
59443;BME280;45247;47.466;19.004;2023-04-09T10:27:26;100672.88;;;9.34;94.20
59443;BME280;45247;47.466;19.004;2023-04-09T10:29:55;100659.88;;;9.09;98.07
59443;BME280;45247;47.466;19.004;2023-04-09T10:32:23;100673.38;;;9.22;100.00
59443;BME280;45247;47.466;19.004;2023-04-09T10:34:56;100663.31;;;9.32;96.38
59443;BME280;45247;47.466;19.004;2023-04-09T10:37:26;100671.28;;;9.30;96.44
59443;BME280;45247;47.466;19.004;2023-04-09T10:39:55;100664.97;;;9.34;95.10
59443;BME280;45247;47.466;19.004;2023-04-09T10:42:31;100667.94;;;9.47;93.75
59443;BME280;45247;47.466;19.004;2023-04-09T10:45:07;100673.44;;;9.82;92.13
59443;BME280;45247;47.466;19.004;2023-04-09T10:47:36;100663.25;;;9.74;94.98
59443;BME280;45247;47.466;19.004;2023-04-09T10:50:17;100668.41;;;9.96;88.28
59443;BME280;45247;47.466;19.004;2023-04-09T10:52:45;100672.41;;;10.04;87.38
59443;BME280;45247;47.466;19.004;2023-04-09T10:55:35;100656.91;;;10.36;89.37
59443;BME280;45247;47.466;19.004;2023-04-09T10:58:06;100663.66;;;10.23;92.94
59443;BME280;45247;47.466;19.004;2023-04-09T11:00:39;100666.81;;;10.31;87.03
59443;BME280;45247;47.466;19.004;2023-04-09T11:03:24;100658.28;;;10.26;86.40
59443;BME280;45247;47.466;19.004;2023-04-09T11:05:57;100663.56;;;10.45;85.03
59443;BME280;45247;47.466;19.004;2023-04-09T11:08:31;100664.47;;;10.63;82.10
59443;BME280;45247;47.466;19.004;2023-04-09T11:11:00;100665.44;;;10.22;84.89
59443;BME280;45247;47.466;19.004;2023-04-09T11:13:31;100661.47;;;10.51;84.20
59443;BME280;45247;47.466;19.004;2023-04-09T11:16:01;100661.25;;;10.75;84.95
59443;BME280;45247;47.466;19.004;2023-04-09T11:18:34;100660.63;;;10.87;82.57
59443;BME280;45247;47.466;19.004;2023-04-09T11:21:05;100654.94;;;10.96;84.21
59443;BME280;45247;47.466;19.004;2023-04-09T11:23:36;100645.59;;;10.89;85.08
59443;BME280;45247;47.466;19.004;2023-04-09T11:26:08;100650.81;;;11.08;83.05
59443;BME280;45247;47.466;19.004;2023-04-09T11:28:42;100644.66;;;10.90;79.37
59443;BME280;45247;47.466;19.004;2023-04-09T11:31:15;100665.78;;;10.90;78.13
59443;BME280;45247;47.466;19.004;2023-04-09T11:33:50;100661.34;;;10.91;79.56
59443;BME280;45247;47.466;19.004;2023-04-09T11:36:22;100651.31;;;10.80;79.39
59443;BME280;45247;47.466;19.004;2023-04-09T11:38:57;100656.84;;;10.57;79.79
59443;BME280;45247;47.466;19.004;2023-04-09T11:41:32;100650.38;;;10.81;79.84
59443;BME280;45247;47.466;19.004;2023-04-09T11:44:03;100653.06;;;10.98;79.78
59443;BME280;45247;47.466;19.004;2023-04-09T11:46:31;100651.88;;;10.50;81.08
59443;BME280;45247;47.466;19.004;2023-04-09T11:49:00;100659.69;;;10.71;82.25
59443;BME280;45247;47.466;19.004;2023-04-09T11:51:29;100656.25;;;10.69;80.50
59443;BME280;45247;47.466;19.004;2023-04-09T11:54:00;100657.72;;;10.38;81.53
59443;BME280;45247;47.466;19.004;2023-04-09T11:56:31;100652.13;;;10.63;83.61
59443;BME280;45247;47.466;19.004;2023-04-09T11:59:00;100648.38;;;10.86;85.36
59443;BME280;45247;47.466;19.004;2023-04-09T12:01:31;100645.06;;;11.35;86.13
59443;BME280;45247;47.466;19.004;2023-04-09T12:04:00;100646.38;;;11.61;82.96
59443;BME280;45247;47.466;19.004;2023-04-09T12:06:28;100652.13;;;11.17;77.86
59443;BME280;45247;47.466;19.004;2023-04-09T12:08:58;100656.41;;;11.37;77.74
59443;BME280;45247;47.466;19.004;2023-04-09T12:11:27;100654.53;;;11.04;77.50
59443;BME280;45247;47.466;19.004;2023-04-09T12:13:58;100649.41;;;10.65;79.04
59443;BME280;45247;47.466;19.004;2023-04-09T12:16:29;100650.88;;;10.89;80.17
59443;BME280;45247;47.466;19.004;2023-04-09T12:19:01;100651.56;;;10.57;81.76
59443;BME280;45247;47.466;19.004;2023-04-09T12:21:44;100641.97;;;10.73;83.10
59443;BME280;45247;47.466;19.004;2023-04-09T12:24:14;100647.28;;;10.90;78.45
59443;BME280;45247;47.466;19.004;2023-04-09T12:26:44;100650.47;;;10.80;77.32
59443;BME280;45247;47.466;19.004;2023-04-09T12:29:13;100646.84;;;10.63;78.74
59443;BME280;45247;47.466;19.004;2023-04-09T12:31:42;100646.59;;;10.87;78.96
59443;BME280;45247;47.466;19.004;2023-04-09T12:34:12;100645.06;;;10.64;78.39
59443;BME280;45247;47.466;19.004;2023-04-09T12:36:40;100639.91;;;10.80;78.13
59443;BME280;45247;47.466;19.004;2023-04-09T12:39:09;100641.53;;;10.82;78.36
59443;BME280;45247;47.466;19.004;2023-04-09T12:41:37;100634.91;;;11.10;77.30
59443;BME280;45247;47.466;19.004;2023-04-09T12:44:05;100641.75;;;11.14;75.98
59443;BME280;45247;47.466;19.004;2023-04-09T12:46:33;100636.47;;;11.14;76.09
59443;BME280;45247;47.466;19.004;2023-04-09T12:49:02;100636.88;;;11.04;75.71
59443;BME280;45247;47.466;19.004;2023-04-09T12:51:31;100633.34;;;11.06;76.49
59443;BME280;45247;47.466;19.004;2023-04-09T12:53:59;100639.69;;;11.01;77.15